sensor_id;sensor_type;location;lat;lon;timestamp;P1;durP1;ratioP1;P2;durP2;ratioP2
16171;SDS011;8192;53.596;10.166;2023-08-24T00:01:24;19.88;;;18.40;;
16171;SDS011;8192;53.596;10.166;2023-08-24T00:03:51;20.27;;;18.38;;
16171;SDS011;8192;53.596;10.166;2023-08-24T00:06:18;19.60;;;18.10;;
16171;SDS011;8192;53.596;10.166;2023-08-24T00:08:45;20.17;;;18.42;;
16171;SDS011;8192;53.596;10.166;2023-08-24T00:11:12;20.02;;;18.17;;
16171;SDS011;8192;53.596;10.166;2023-08-24T00:13:41;19.38;;;17.77;;
16171;SDS011;8192;53.596;10.166;2023-08-24T00:16:13;18.75;;;17.30;;
16171;SDS011;8192;53.596;10.166;2023-08-24T00:18:40;18.75;;;17.20;;
16171;SDS011;8192;53.596;10.166;2023-08-24T00:21:07;19.38;;;17.58;;
16171;SDS011;8192;53.596;10.166;2023-08-24T00:23:34;18.40;;;16.92;;
16171;SDS011;8192;53.596;10.166;2023-08-24T00:26:01;18.67;;;17.23;;
16171;SDS011;8192;53.596;10.166;2023-08-24T00:28:28;19.13;;;17.45;;
16171;SDS011;8192;53.596;10.166;2023-08-24T00:30:57;18.85;;;17.02;;
16171;SDS011;8192;53.596;10.166;2023-08-24T00:33:23;18.60;;;16.95;;
16171;SDS011;8192;53.596;10.166;2023-08-24T00:35:50;18.73;;;17.25;;
16171;SDS011;8192;53.596;10.166;2023-08-24T00:38:17;18.77;;;17.15;;
16171;SDS011;8192;53.596;10.166;2023-08-24T00:40:44;18.67;;;17.15;;
16171;SDS011;8192;53.596;10.166;2023-08-24T00:43:11;18.75;;;17.23;;
16171;SDS011;8192;53.596;10.166;2023-08-24T00:45:39;18.60;;;17.08;;
16171;SDS011;8192;53.596;10.166;2023-08-24T00:48:08;18.58;;;16.95;;
16171;SDS011;8192;53.596;10.166;2023-08-24T00:50:36;18.98;;;17.42;;
16171;SDS011;8192;53.596;10.166;2023-08-24T00:53:03;18.73;;;17.02;;
16171;SDS011;8192;53.596;10.166;2023-08-24T00:55:30;18.40;;;17.02;;
16171;SDS011;8192;53.596;10.166;2023-08-24T00:57:58;17.98;;;16.55;;
16171;SDS011;8192;53.596;10.166;2023-08-24T01:00:25;19.02;;;17.17;;
16171;SDS011;8192;53.596;10.166;2023-08-24T01:02:52;17.38;;;15.90;;
16171;SDS011;8192;53.596;10.166;2023-08-24T01:05:20;17.27;;;15.90;;
16171;SDS011;8192;53.596;10.166;2023-08-24T01:07:47;17.73;;;16.25;;
16171;SDS011;8192;53.596;10.166;2023-08-24T01:10:14;17.92;;;16.40;;
16171;SDS011;8192;53.596;10.166;2023-08-24T01:12:52;18.25;;;16.55;;
16171;SDS011;8192;53.596;10.166;2023-08-24T01:15:30;19.17;;;16.75;;
16171;SDS011;8192;53.596;10.166;2023-08-24T01:18:04;17.88;;;16.58;;
16171;SDS011;8192;53.596;10.166;2023-08-24T01:20:36;18.30;;;17.10;;
16171;SDS011;8192;53.596;10.166;2023-08-24T01:23:07;18.88;;;17.33;;
16171;SDS011;8192;53.596;10.166;2023-08-24T01:25:46;18.50;;;17.08;;
16171;SDS011;8192;53.596;10.166;2023-08-24T01:28:19;18.00;;;16.80;;
16171;SDS011;8192;53.596;10.166;2023-08-24T01:30:47;18.33;;;16.83;;
16171;SDS011;8192;53.596;10.166;2023-08-24T01:33:14;18.35;;;16.80;;
16171;SDS011;8192;53.596;10.166;2023-08-24T01:35:41;17.77;;;16.48;;
16171;SDS011;8192;53.596;10.166;2023-08-24T01:38:08;18.63;;;17.15;;
16171;SDS011;8192;53.596;10.166;2023-08-24T01:40:39;19.02;;;17.40;;
16171;SDS011;8192;53.596;10.166;2023-08-24T01:43:14;18.67;;;17.00;;
16171;SDS011;8192;53.596;10.166;2023-08-24T01:45:46;19.30;;;17.30;;
16171;SDS011;8192;53.596;10.166;2023-08-24T01:48:13;18.40;;;16.88;;
16171;SDS011;8192;53.596;10.166;2023-08-24T01:50:42;17.83;;;16.63;;
16171;SDS011;8192;53.596;10.166;2023-08-24T01:53:10;18.13;;;16.83;;
16171;SDS011;8192;53.596;10.166;2023-08-24T01:55:37;18.23;;;16.73;;
16171;SDS011;8192;53.596;10.166;2023-08-24T01:58:05;18.25;;;16.60;;
16171;SDS011;8192;53.596;10.166;2023-08-24T02:00:32;18.23;;;16.85;;
16171;SDS011;8192;53.596;10.166;2023-08-24T02:03:00;18.63;;;16.92;;
16171;SDS011;8192;53.596;10.166;2023-08-24T02:05:27;18.63;;;17.02;;
16171;SDS011;8192;53.596;10.166;2023-08-24T02:07:54;18.10;;;16.92;;
16171;SDS011;8192;53.596;10.166;2023-08-24T02:10:22;18.55;;;17.15;;
16171;SDS011;8192;53.596;10.166;2023-08-24T02:12:49;18.40;;;16.70;;
16171;SDS011;8192;53.596;10.166;2023-08-24T02:15:16;18.05;;;16.75;;
16171;SDS011;8192;53.596;10.166;2023-08-24T02:17:43;18.23;;;16.83;;
16171;SDS011;8192;53.596;10.166;2023-08-24T02:20:11;18.88;;;16.98;;
16171;SDS011;8192;53.596;10.166;2023-08-24T02:22:38;19.02;;;17.40;;
16171;SDS011;8192;53.596;10.166;2023-08-24T02:25:06;18.90;;;17.20;;
16171;SDS011;8192;53.596;10.166;2023-08-24T02:27:33;18.90;;;17.35;;
16171;SDS011;8192;53.596;10.166;2023-08-24T02:30:00;19.70;;;17.80;;
16171;SDS011;8192;53.596;10.166;2023-08-24T02:32:27;19.58;;;18.02;;
16171;SDS011;8192;53.596;10.166;2023-08-24T02:34:54;19.42;;;17.73;;
16171;SDS011;8192;53.596;10.166;2023-08-24T02:37:22;19.45;;;17.65;;
16171;SDS011;8192;53.596;10.166;2023-08-24T02:39:49;19.25;;;17.83;;
16171;SDS011;8192;53.596;10.166;2023-08-24T02:42:16;18.77;;;17.13;;
16171;SDS011;8192;53.596;10.166;2023-08-24T02:44:43;19.38;;;17.73;;
16171;SDS011;8192;53.596;10.166;2023-08-24T02:47:09;19.48;;;17.90;;
16171;SDS011;8192;53.596;10.166;2023-08-24T02:49:36;19.40;;;17.55;;
16171;SDS011;8192;53.596;10.166;2023-08-24T02:52:04;18.90;;;17.55;;
16171;SDS011;8192;53.596;10.166;2023-08-24T02:54:32;19.95;;;18.20;;
16171;SDS011;8192;53.596;10.166;2023-08-24T02:57:00;19.27;;;17.75;;
16171;SDS011;8192;53.596;10.166;2023-08-24T02:59:27;20.50;;;18.83;;
16171;SDS011;8192;53.596;10.166;2023-08-24T03:01:54;20.75;;;19.25;;
16171;SDS011;8192;53.596;10.166;2023-08-24T03:04:21;19.63;;;18.23;;
16171;SDS011;8192;53.596;10.166;2023-08-24T03:06:48;22.55;;;20.50;;
16171;SDS011;8192;53.596;10.166;2023-08-24T03:09:15;21.83;;;20.08;;
16171;SDS011;8192;53.596;10.166;2023-08-24T03:11:44;21.92;;;20.17;;
16171;SDS011;8192;53.596;10.166;2023-08-24T03:14:11;22.05;;;19.90;;
16171;SDS011;8192;53.596;10.166;2023-08-24T03:16:37;22.83;;;20.75;;
16171;SDS011;8192;53.596;10.166;2023-08-24T03:19:05;23.13;;;21.45;;
16171;SDS011;8192;53.596;10.166;2023-08-24T03:21:32;24.40;;;21.95;;
16171;SDS011;8192;53.596;10.166;2023-08-24T03:23:59;23.85;;;21.70;;
16171;SDS011;8192;53.596;10.166;2023-08-24T03:26:26;23.70;;;21.58;;
16171;SDS011;8192;53.596;10.166;2023-08-24T03:28:54;24.55;;;22.17;;
16171;SDS011;8192;53.596;10.166;2023-08-24T03:31:21;22.38;;;20.60;;
16171;SDS011;8192;53.596;10.166;2023-08-24T03:33:48;23.52;;;21.50;;
16171;SDS011;8192;53.596;10.166;2023-08-24T03:36:15;24.00;;;21.88;;
16171;SDS011;8192;53.596;10.166;2023-08-24T03:38:41;23.73;;;21.65;;
16171;SDS011;8192;53.596;10.166;2023-08-24T03:41:08;23.40;;;21.25;;
16171;SDS011;8192;53.596;10.166;2023-08-24T03:43:35;23.42;;;21.25;;
16171;SDS011;8192;53.596;10.166;2023-08-24T03:46:04;22.88;;;20.77;;
16171;SDS011;8192;53.596;10.166;2023-08-24T03:48:31;21.25;;;19.65;;
16171;SDS011;8192;53.596;10.166;2023-08-24T03:50:58;21.98;;;20.05;;
16171;SDS011;8192;53.596;10.166;2023-08-24T03:53:25;22.23;;;20.23;;
16171;SDS011;8192;53.596;10.166;2023-08-24T03:55:54;21.13;;;19.48;;
16171;SDS011;8192;53.596;10.166;2023-08-24T03:58:21;21.30;;;19.50;;
16171;SDS011;8192;53.596;10.166;2023-08-24T04:00:48;21.13;;;19.67;;
16171;SDS011;8192;53.596;10.166;2023-08-24T04:03:17;20.98;;;19.48;;
16171;SDS011;8192;53.596;10.166;2023-08-24T04:05:44;21.48;;;19.55;;
16171;SDS011;8192;53.596;10.166;2023-08-24T04:08:11;23.17;;;20.73;;
16171;SDS011;8192;53.596;10.166;2023-08-24T04:10:38;22.38;;;20.63;;
16171;SDS011;8192;53.596;10.166;2023-08-24T04:13:04;22.40;;;20.52;;
16171;SDS011;8192;53.596;10.166;2023-08-24T04:15:31;22.67;;;20.85;;
16171;SDS011;8192;53.596;10.166;2023-08-24T04:17:58;22.52;;;20.73;;
16171;SDS011;8192;53.596;10.166;2023-08-24T04:20:27;22.48;;;20.70;;
16171;SDS011;8192;53.596;10.166;2023-08-24T04:22:54;24.38;;;22.20;;
16171;SDS011;8192;53.596;10.166;2023-08-24T04:25:21;23.30;;;21.40;;
16171;SDS011;8192;53.596;10.166;2023-08-24T04:27:48;22.45;;;20.60;;
16171;SDS011;8192;53.596;10.166;2023-08-24T04:30:15;21.90;;;20.20;;
16171;SDS011;8192;53.596;10.166;2023-08-24T04:32:42;23.02;;;21.33;;
16171;SDS011;8192;53.596;10.166;2023-08-24T04:35:09;24.05;;;21.77;;
16171;SDS011;8192;53.596;10.166;2023-08-24T04:37:38;24.58;;;22.45;;
16171;SDS011;8192;53.596;10.166;2023-08-24T04:40:06;25.17;;;22.70;;
16171;SDS011;8192;53.596;10.166;2023-08-24T04:42:34;24.17;;;22.38;;
16171;SDS011;8192;53.596;10.166;2023-08-24T04:45:01;24.70;;;22.33;;
16171;SDS011;8192;53.596;10.166;2023-08-24T04:47:28;24.02;;;21.95;;
16171;SDS011;8192;53.596;10.166;2023-08-24T04:49:55;24.27;;;22.38;;
16171;SDS011;8192;53.596;10.166;2023-08-24T04:52:22;23.63;;;21.52;;
16171;SDS011;8192;53.596;10.166;2023-08-24T04:54:51;23.83;;;21.73;;
16171;SDS011;8192;53.596;10.166;2023-08-24T04:57:18;24.25;;;22.15;;
16171;SDS011;8192;53.596;10.166;2023-08-24T04:59:45;23.35;;;21.38;;
16171;SDS011;8192;53.596;10.166;2023-08-24T05:02:12;23.40;;;21.50;;
16171;SDS011;8192;53.596;10.166;2023-08-24T05:04:39;23.42;;;21.50;;
16171;SDS011;8192;53.596;10.166;2023-08-24T05:07:06;23.63;;;21.75;;
16171;SDS011;8192;53.596;10.166;2023-08-24T05:09:32;23.58;;;21.77;;
16171;SDS011;8192;53.596;10.166;2023-08-24T05:12:01;22.45;;;20.77;;
16171;SDS011;8192;53.596;10.166;2023-08-24T05:14:28;22.63;;;20.98;;
16171;SDS011;8192;53.596;10.166;2023-08-24T05:16:55;23.27;;;21.48;;
16171;SDS011;8192;53.596;10.166;2023-08-24T05:19:22;22.45;;;20.65;;
16171;SDS011;8192;53.596;10.166;2023-08-24T05:21:49;21.27;;;19.67;;
16171;SDS011;8192;53.596;10.166;2023-08-24T05:24:16;21.27;;;19.58;;
16171;SDS011;8192;53.596;10.166;2023-08-24T05:26:43;21.08;;;19.48;;
16171;SDS011;8192;53.596;10.166;2023-08-24T05:29:11;21.00;;;19.35;;
16171;SDS011;8192;53.596;10.166;2023-08-24T05:31:38;20.85;;;19.38;;
16171;SDS011;8192;53.596;10.166;2023-08-24T05:34:05;21.95;;;20.13;;
16171;SDS011;8192;53.596;10.166;2023-08-24T05:36:32;22.80;;;20.75;;
16171;SDS011;8192;53.596;10.166;2023-08-24T05:38:59;21.92;;;20.33;;
16171;SDS011;8192;53.596;10.166;2023-08-24T05:41:25;22.88;;;20.88;;
16171;SDS011;8192;53.596;10.166;2023-08-24T05:43:52;22.98;;;21.08;;
16171;SDS011;8192;53.596;10.166;2023-08-24T05:46:22;22.92;;;20.90;;
16171;SDS011;8192;53.596;10.166;2023-08-24T05:48:49;23.08;;;21.15;;
16171;SDS011;8192;53.596;10.166;2023-08-24T05:51:16;22.48;;;20.63;;
16171;SDS011;8192;53.596;10.166;2023-08-24T05:53:42;22.65;;;20.83;;
16171;SDS011;8192;53.596;10.166;2023-08-24T05:56:09;22.30;;;20.60;;
16171;SDS011;8192;53.596;10.166;2023-08-24T05:58:36;21.63;;;19.98;;
16171;SDS011;8192;53.596;10.166;2023-08-24T06:01:03;21.00;;;19.55;;
16171;SDS011;8192;53.596;10.166;2023-08-24T06:03:31;21.63;;;20.05;;
16171;SDS011;8192;53.596;10.166;2023-08-24T06:06:00;21.42;;;19.88;;
16171;SDS011;8192;53.596;10.166;2023-08-24T06:08:28;21.58;;;20.17;;
16171;SDS011;8192;53.596;10.166;2023-08-24T06:10:56;21.38;;;19.83;;
16171;SDS011;8192;53.596;10.166;2023-08-24T06:13:23;20.67;;;19.27;;
16171;SDS011;8192;53.596;10.166;2023-08-24T06:15:50;20.75;;;19.42;;
16171;SDS011;8192;53.596;10.166;2023-08-24T06:18:17;20.50;;;19.15;;
16171;SDS011;8192;53.596;10.166;2023-08-24T06:20:46;21.58;;;19.50;;
16171;SDS011;8192;53.596;10.166;2023-08-24T06:23:14;20.23;;;18.70;;
16171;SDS011;8192;53.596;10.166;2023-08-24T06:25:42;20.90;;;19.13;;
16171;SDS011;8192;53.596;10.166;2023-08-24T06:28:10;22.50;;;18.58;;
16171;SDS011;8192;53.596;10.166;2023-08-24T06:30:37;20.58;;;18.27;;
16171;SDS011;8192;53.596;10.166;2023-08-24T06:33:04;18.20;;;16.90;;
16171;SDS011;8192;53.596;10.166;2023-08-24T06:35:32;18.75;;;17.08;;
16171;SDS011;8192;53.596;10.166;2023-08-24T06:38:01;17.58;;;16.55;;
16171;SDS011;8192;53.596;10.166;2023-08-24T06:40:29;18.65;;;17.13;;
16171;SDS011;8192;53.596;10.166;2023-08-24T06:42:56;18.25;;;16.75;;
16171;SDS011;8192;53.596;10.166;2023-08-24T06:45:23;18.00;;;16.80;;
16171;SDS011;8192;53.596;10.166;2023-08-24T06:47:50;18.73;;;17.23;;
16171;SDS011;8192;53.596;10.166;2023-08-24T06:50:17;17.85;;;16.65;;
16171;SDS011;8192;53.596;10.166;2023-08-24T06:52:45;17.30;;;16.10;;
16171;SDS011;8192;53.596;10.166;2023-08-24T06:55:13;17.30;;;16.10;;
16171;SDS011;8192;53.596;10.166;2023-08-24T06:57:41;16.75;;;15.55;;
16171;SDS011;8192;53.596;10.166;2023-08-24T07:00:08;16.88;;;15.70;;
16171;SDS011;8192;53.596;10.166;2023-08-24T07:02:42;17.15;;;15.95;;
16171;SDS011;8192;53.596;10.166;2023-08-24T07:05:09;17.55;;;15.88;;
16171;SDS011;8192;53.596;10.166;2023-08-24T07:07:37;17.33;;;15.88;;
16171;SDS011;8192;53.596;10.166;2023-08-24T07:10:05;17.52;;;16.13;;
16171;SDS011;8192;53.596;10.166;2023-08-24T07:12:34;17.02;;;15.73;;
16171;SDS011;8192;53.596;10.166;2023-08-24T07:15:01;18.02;;;16.38;;
16171;SDS011;8192;53.596;10.166;2023-08-24T07:17:29;17.45;;;16.02;;
16171;SDS011;8192;53.596;10.166;2023-08-24T07:19:56;17.15;;;16.02;;
16171;SDS011;8192;53.596;10.166;2023-08-24T07:22:23;18.08;;;16.33;;
16171;SDS011;8192;53.596;10.166;2023-08-24T07:24:51;17.05;;;15.95;;
16171;SDS011;8192;53.596;10.166;2023-08-24T07:27:18;17.30;;;16.20;;
16171;SDS011;8192;53.596;10.166;2023-08-24T07:29:47;17.10;;;16.00;;
16171;SDS011;8192;53.596;10.166;2023-08-24T07:32:15;17.63;;;16.40;;
16171;SDS011;8192;53.596;10.166;2023-08-24T07:34:42;17.73;;;16.27;;
16171;SDS011;8192;53.596;10.166;2023-08-24T07:37:09;17.40;;;16.20;;
16171;SDS011;8192;53.596;10.166;2023-08-24T07:39:37;18.20;;;16.73;;
16171;SDS011;8192;53.596;10.166;2023-08-24T07:42:04;17.27;;;16.20;;
16171;SDS011;8192;53.596;10.166;2023-08-24T07:44:31;17.85;;;16.60;;
16171;SDS011;8192;53.596;10.166;2023-08-24T07:47:00;17.60;;;16.23;;
16171;SDS011;8192;53.596;10.166;2023-08-24T07:49:29;17.73;;;16.42;;
16171;SDS011;8192;53.596;10.166;2023-08-24T07:51:56;18.00;;;16.80;;
16171;SDS011;8192;53.596;10.166;2023-08-24T07:54:23;18.02;;;16.70;;
16171;SDS011;8192;53.596;10.166;2023-08-24T07:56:51;17.73;;;16.58;;
16171;SDS011;8192;53.596;10.166;2023-08-24T07:59:18;17.98;;;16.65;;
16171;SDS011;8192;53.596;10.166;2023-08-24T08:01:44;18.05;;;16.70;;
16171;SDS011;8192;53.596;10.166;2023-08-24T08:04:13;18.10;;;16.83;;
16171;SDS011;8192;53.596;10.166;2023-08-24T08:06:40;17.92;;;16.63;;
16171;SDS011;8192;53.596;10.166;2023-08-24T08:09:07;18.15;;;16.85;;
16171;SDS011;8192;53.596;10.166;2023-08-24T08:11:34;17.85;;;16.40;;
16171;SDS011;8192;53.596;10.166;2023-08-24T08:14:01;17.95;;;16.73;;
16171;SDS011;8192;53.596;10.166;2023-08-24T08:16:28;17.42;;;16.33;;
16171;SDS011;8192;53.596;10.166;2023-08-24T08:18:55;17.73;;;16.42;;
16171;SDS011;8192;53.596;10.166;2023-08-24T08:21:23;17.85;;;16.50;;
16171;SDS011;8192;53.596;10.166;2023-08-24T08:23:50;17.33;;;16.10;;
16171;SDS011;8192;53.596;10.166;2023-08-24T08:26:17;17.30;;;16.27;;
16171;SDS011;8192;53.596;10.166;2023-08-24T08:28:44;17.98;;;16.77;;
16171;SDS011;8192;53.596;10.166;2023-08-24T08:31:11;17.17;;;16.17;;
16171;SDS011;8192;53.596;10.166;2023-08-24T08:33:38;17.35;;;16.17;;
16171;SDS011;8192;53.596;10.166;2023-08-24T08:36:05;17.75;;;16.50;;
16171;SDS011;8192;53.596;10.166;2023-08-24T08:38:34;17.10;;;15.75;;
16171;SDS011;8192;53.596;10.166;2023-08-24T08:41:01;16.65;;;15.65;;
16171;SDS011;8192;53.596;10.166;2023-08-24T08:43:29;17.10;;;16.00;;
16171;SDS011;8192;53.596;10.166;2023-08-24T08:45:57;17.48;;;16.38;;
16171;SDS011;8192;53.596;10.166;2023-08-24T08:48:25;17.17;;;15.98;;
16171;SDS011;8192;53.596;10.166;2023-08-24T08:50:54;17.42;;;16.20;;
16171;SDS011;8192;53.596;10.166;2023-08-24T08:53:22;17.40;;;16.20;;
16171;SDS011;8192;53.596;10.166;2023-08-24T08:55:52;17.20;;;16.00;;
16171;SDS011;8192;53.596;10.166;2023-08-24T08:58:22;17.13;;;16.02;;
16171;SDS011;8192;53.596;10.166;2023-08-24T09:00:49;17.33;;;16.13;;
16171;SDS011;8192;53.596;10.166;2023-08-24T09:03:18;17.45;;;16.38;;
16171;SDS011;8192;53.596;10.166;2023-08-24T09:05:45;16.95;;;15.73;;
16171;SDS011;8192;53.596;10.166;2023-08-24T09:08:13;17.13;;;16.13;;
16171;SDS011;8192;53.596;10.166;2023-08-24T09:10:42;18.23;;;16.30;;
16171;SDS011;8192;53.596;10.166;2023-08-24T09:13:10;17.50;;;16.08;;
16171;SDS011;8192;53.596;10.166;2023-08-24T09:15:37;17.45;;;16.17;;
16171;SDS011;8192;53.596;10.166;2023-08-24T09:18:04;17.15;;;15.95;;
16171;SDS011;8192;53.596;10.166;2023-08-24T09:20:31;17.42;;;16.13;;
16171;SDS011;8192;53.596;10.166;2023-08-24T09:22:59;17.52;;;16.33;;
16171;SDS011;8192;53.596;10.166;2023-08-24T09:25:27;17.27;;;15.90;;
16171;SDS011;8192;53.596;10.166;2023-08-24T09:27:57;17.15;;;15.98;;
16171;SDS011;8192;53.596;10.166;2023-08-24T09:30:25;17.55;;;16.30;;
16171;SDS011;8192;53.596;10.166;2023-08-24T09:33:01;17.55;;;16.45;;
16171;SDS011;8192;53.596;10.166;2023-08-24T09:35:28;17.90;;;16.48;;
16171;SDS011;8192;53.596;10.166;2023-08-24T09:38:14;18.20;;;16.63;;
16171;SDS011;8192;53.596;10.166;2023-08-24T09:40:44;18.17;;;16.73;;
16171;SDS011;8192;53.596;10.166;2023-08-24T09:43:13;18.05;;;16.98;;
16171;SDS011;8192;53.596;10.166;2023-08-24T09:45:48;17.55;;;16.35;;
16171;SDS011;8192;53.596;10.166;2023-08-24T09:48:16;17.40;;;16.30;;
16171;SDS011;8192;53.596;10.166;2023-08-24T09:50:44;18.02;;;16.52;;
16171;SDS011;8192;53.596;10.166;2023-08-24T09:53:14;17.40;;;16.13;;
16171;SDS011;8192;53.596;10.166;2023-08-24T09:55:44;17.95;;;16.65;;
16171;SDS011;8192;53.596;10.166;2023-08-24T09:58:14;18.02;;;16.67;;
16171;SDS011;8192;53.596;10.166;2023-08-24T10:00:42;17.80;;;16.55;;
16171;SDS011;8192;53.596;10.166;2023-08-24T10:03:14;18.45;;;17.15;;
16171;SDS011;8192;53.596;10.166;2023-08-24T10:05:45;18.42;;;17.13;;
16171;SDS011;8192;53.596;10.166;2023-08-24T10:08:13;18.33;;;16.98;;
16171;SDS011;8192;53.596;10.166;2023-08-24T10:10:42;18.88;;;17.38;;
16171;SDS011;8192;53.596;10.166;2023-08-24T10:13:11;18.02;;;16.63;;
16171;SDS011;8192;53.596;10.166;2023-08-24T10:15:45;19.80;;;17.73;;
16171;SDS011;8192;53.596;10.166;2023-08-24T10:18:16;19.15;;;17.40;;
16171;SDS011;8192;53.596;10.166;2023-08-24T10:20:44;17.70;;;16.55;;
16171;SDS011;8192;53.596;10.166;2023-08-24T10:23:14;18.02;;;16.67;;
16171;SDS011;8192;53.596;10.166;2023-08-24T10:25:42;18.10;;;16.88;;
16171;SDS011;8192;53.596;10.166;2023-08-24T10:28:10;18.60;;;17.10;;
16171;SDS011;8192;53.596;10.166;2023-08-24T10:30:38;18.17;;;16.88;;
16171;SDS011;8192;53.596;10.166;2023-08-24T10:33:07;18.33;;;16.92;;
16171;SDS011;8192;53.596;10.166;2023-08-24T10:35:36;18.00;;;16.70;;
16171;SDS011;8192;53.596;10.166;2023-08-24T10:38:03;18.73;;;17.35;;
16171;SDS011;8192;53.596;10.166;2023-08-24T10:40:32;17.77;;;16.38;;
16171;SDS011;8192;53.596;10.166;2023-08-24T10:43:04;18.13;;;16.70;;
16171;SDS011;8192;53.596;10.166;2023-08-24T10:48:22;18.88;;;17.42;;
16171;SDS011;8192;53.596;10.166;2023-08-24T10:53:47;18.02;;;16.77;;
16171;SDS011;8192;53.596;10.166;2023-08-24T10:56:17;18.73;;;17.30;;
16171;SDS011;8192;53.596;10.166;2023-08-24T10:58:45;18.65;;;17.05;;
16171;SDS011;8192;53.596;10.166;2023-08-24T11:03:48;18.70;;;17.25;;
16171;SDS011;8192;53.596;10.166;2023-08-24T11:06:21;19.23;;;17.40;;
16171;SDS011;8192;53.596;10.166;2023-08-24T11:08:57;18.13;;;16.80;;
16171;SDS011;8192;53.596;10.166;2023-08-24T11:11:34;18.17;;;16.80;;
16171;SDS011;8192;53.596;10.166;2023-08-24T11:14:15;19.00;;;17.40;;
16171;SDS011;8192;53.596;10.166;2023-08-24T11:16:45;19.05;;;17.55;;
16171;SDS011;8192;53.596;10.166;2023-08-24T11:19:12;18.10;;;16.60;;
16171;SDS011;8192;53.596;10.166;2023-08-24T11:21:41;18.25;;;16.80;;
16171;SDS011;8192;53.596;10.166;2023-08-24T11:24:09;18.08;;;16.55;;
16171;SDS011;8192;53.596;10.166;2023-08-24T11:26:39;18.65;;;17.27;;
16171;SDS011;8192;53.596;10.166;2023-08-24T11:29:07;17.75;;;16.50;;
16171;SDS011;8192;53.596;10.166;2023-08-24T11:31:34;18.17;;;16.90;;
16171;SDS011;8192;53.596;10.166;2023-08-24T11:34:02;18.10;;;16.75;;
16171;SDS011;8192;53.596;10.166;2023-08-24T11:36:29;18.17;;;16.83;;
16171;SDS011;8192;53.596;10.166;2023-08-24T11:38:59;17.92;;;16.63;;
16171;SDS011;8192;53.596;10.166;2023-08-24T11:41:26;17.85;;;16.45;;
16171;SDS011;8192;53.596;10.166;2023-08-24T11:43:59;17.48;;;16.17;;
16171;SDS011;8192;53.596;10.166;2023-08-24T11:46:28;17.98;;;16.63;;
16171;SDS011;8192;53.596;10.166;2023-08-24T11:48:56;18.50;;;16.88;;
16171;SDS011;8192;53.596;10.166;2023-08-24T11:51:25;18.00;;;16.90;;
16171;SDS011;8192;53.596;10.166;2023-08-24T11:53:52;18.23;;;16.52;;
16171;SDS011;8192;53.596;10.166;2023-08-24T11:56:21;18.05;;;16.85;;
16171;SDS011;8192;53.596;10.166;2023-08-24T11:58:48;18.60;;;17.17;;
16171;SDS011;8192;53.596;10.166;2023-08-24T12:01:16;17.77;;;16.48;;
16171;SDS011;8192;53.596;10.166;2023-08-24T12:03:43;17.90;;;16.52;;
16171;SDS011;8192;53.596;10.166;2023-08-24T12:06:11;17.92;;;16.63;;
16171;SDS011;8192;53.596;10.166;2023-08-24T12:08:39;18.30;;;16.90;;
16171;SDS011;8192;53.596;10.166;2023-08-24T12:11:13;17.20;;;16.20;;
16171;SDS011;8192;53.596;10.166;2023-08-24T12:13:47;17.67;;;16.30;;
16171;SDS011;8192;53.596;10.166;2023-08-24T12:16:15;18.08;;;16.85;;
16171;SDS011;8192;53.596;10.166;2023-08-24T12:18:46;18.48;;;16.98;;
16171;SDS011;8192;53.596;10.166;2023-08-24T12:21:16;17.67;;;16.35;;
16171;SDS011;8192;53.596;10.166;2023-08-24T12:23:44;17.90;;;16.70;;
16171;SDS011;8192;53.596;10.166;2023-08-24T12:26:20;17.40;;;16.10;;
16171;SDS011;8192;53.596;10.166;2023-08-24T12:28:51;17.85;;;16.60;;
16171;SDS011;8192;53.596;10.166;2023-08-24T12:31:19;18.08;;;16.77;;
16171;SDS011;8192;53.596;10.166;2023-08-24T12:33:58;17.17;;;16.15;;
16171;SDS011;8192;53.596;10.166;2023-08-24T12:36:25;17.85;;;16.48;;
16171;SDS011;8192;53.596;10.166;2023-08-24T12:38:53;17.85;;;16.65;;
16171;SDS011;8192;53.596;10.166;2023-08-24T12:41:20;17.65;;;16.35;;
16171;SDS011;8192;53.596;10.166;2023-08-24T12:43:46;17.88;;;16.58;;
16171;SDS011;8192;53.596;10.166;2023-08-24T12:46:15;17.85;;;16.67;;
16171;SDS011;8192;53.596;10.166;2023-08-24T12:48:42;17.17;;;16.17;;
16171;SDS011;8192;53.596;10.166;2023-08-24T12:51:09;18.33;;;16.55;;
16171;SDS011;8192;53.596;10.166;2023-08-24T12:53:36;17.88;;;16.58;;
16171;SDS011;8192;53.596;10.166;2023-08-24T12:56:02;17.75;;;16.45;;
16171;SDS011;8192;53.596;10.166;2023-08-24T12:58:30;17.13;;;16.02;;
16171;SDS011;8192;53.596;10.166;2023-08-24T13:00:57;18.10;;;16.52;;
16171;SDS011;8192;53.596;10.166;2023-08-24T13:03:25;17.65;;;16.42;;
16171;SDS011;8192;53.596;10.166;2023-08-24T13:05:52;16.92;;;15.90;;
16171;SDS011;8192;53.596;10.166;2023-08-24T13:08:19;18.02;;;16.55;;
16171;SDS011;8192;53.596;10.166;2023-08-24T13:10:45;17.58;;;16.48;;
16171;SDS011;8192;53.596;10.166;2023-08-24T13:13:12;18.17;;;16.98;;
16171;SDS011;8192;53.596;10.166;2023-08-24T13:15:39;17.73;;;16.58;;
16171;SDS011;8192;53.596;10.166;2023-08-24T13:18:06;18.48;;;17.08;;
16171;SDS011;8192;53.596;10.166;2023-08-24T13:20:35;18.23;;;16.60;;
16171;SDS011;8192;53.596;10.166;2023-08-24T13:23:02;17.52;;;16.42;;
16171;SDS011;8192;53.596;10.166;2023-08-24T13:25:29;18.20;;;16.90;;
16171;SDS011;8192;53.596;10.166;2023-08-24T13:27:56;17.38;;;16.27;;
16171;SDS011;8192;53.596;10.166;2023-08-24T13:30:23;17.73;;;16.40;;
16171;SDS011;8192;53.596;10.166;2023-08-24T13:32:50;17.00;;;15.98;;
16171;SDS011;8192;53.596;10.166;2023-08-24T13:35:16;17.90;;;16.60;;
16171;SDS011;8192;53.596;10.166;2023-08-24T13:37:45;17.50;;;16.25;;
16171;SDS011;8192;53.596;10.166;2023-08-24T13:40:13;16.75;;;15.80;;
16171;SDS011;8192;53.596;10.166;2023-08-24T13:42:40;16.77;;;15.48;;
16171;SDS011;8192;53.596;10.166;2023-08-24T13:45:07;16.30;;;15.30;;
16171;SDS011;8192;53.596;10.166;2023-08-24T13:47:34;16.55;;;15.45;;
16171;SDS011;8192;53.596;10.166;2023-08-24T13:50:02;16.80;;;15.70;;
16171;SDS011;8192;53.596;10.166;2023-08-24T13:52:29;17.15;;;15.93;;
16171;SDS011;8192;53.596;10.166;2023-08-24T13:54:58;17.45;;;16.35;;
16171;SDS011;8192;53.596;10.166;2023-08-24T13:57:28;17.60;;;16.40;;
16171;SDS011;8192;53.596;10.166;2023-08-24T13:59:55;17.08;;;15.98;;
16171;SDS011;8192;53.596;10.166;2023-08-24T14:02:22;17.35;;;16.25;;
16171;SDS011;8192;53.596;10.166;2023-08-24T14:04:50;17.23;;;16.02;;
16171;SDS011;8192;53.596;10.166;2023-08-24T14:07:17;17.60;;;16.20;;
16171;SDS011;8192;53.596;10.166;2023-08-24T14:09:44;16.52;;;15.52;;
16171;SDS011;8192;53.596;10.166;2023-08-24T14:12:13;17.77;;;16.40;;
16171;SDS011;8192;53.596;10.166;2023-08-24T14:14:40;17.58;;;16.25;;
16171;SDS011;8192;53.596;10.166;2023-08-24T14:17:08;17.33;;;16.10;;
16171;SDS011;8192;53.596;10.166;2023-08-24T14:19:35;16.70;;;15.73;;
16171;SDS011;8192;53.596;10.166;2023-08-24T14:22:02;16.95;;;15.82;;
16171;SDS011;8192;53.596;10.166;2023-08-24T14:24:28;17.70;;;16.17;;
16171;SDS011;8192;53.596;10.166;2023-08-24T14:26:56;17.05;;;15.82;;
16171;SDS011;8192;53.596;10.166;2023-08-24T14:29:24;16.85;;;15.68;;
16171;SDS011;8192;53.596;10.166;2023-08-24T14:31:51;17.10;;;16.00;;
16171;SDS011;8192;53.596;10.166;2023-08-24T14:34:18;16.70;;;15.63;;